Time;durP1;ratioP1;P1;durP2;ratioP2;P2;SDS_P1;SDS_P2;PMS_P1;PMS_P2;Temp;Humidity;BMP_temperature;BMP_pressure;BME280_temperature;BME280_humidity;BME280_pressure;Samples;Min_cycle;Max_cycle;Signal;HPM_P1;HPM_P2
2023/04/03 00:01:54;;;;;;;1.50;1.40;;;2.50;97.30;;;;;;5035015;28;20265;-87
2023/04/03 00:04:20;;;;;;;1.13;1.03;;;2.50;97.30;;;;;;5034998;28;20250;-87
2023/04/03 00:06:46;;;;;;;1.20;1.10;;;2.40;97.30;;;;;;5037001;28;20259;-88
2023/04/03 00:09:11;;;;;;;1.00;0.90;;;2.40;97.30;;;;;;5034854;28;20248;-87
2023/04/03 00:11:37;;;;;;;2.40;1.87;;;2.40;97.30;;;;;;5035757;28;20655;-87
2023/04/03 00:14:02;;;;;;;1.20;1.10;;;2.40;97.30;;;;;;5035124;28;20219;-89
2023/04/03 00:16:28;;;;;;;1.83;1.33;;;2.40;97.30;;;;;;5035219;28;20666;-88
2023/04/03 00:18:54;;;;;;;1.10;1.00;;;2.30;97.30;;;;;;5034788;28;20204;-87
2023/04/03 00:21:19;;;;;;;1.10;1.00;;;2.30;97.30;;;;;;5035449;28;20777;-88
2023/04/03 00:23:45;;;;;;;4.97;1.67;;;2.20;97.30;;;;;;5034540;28;20689;-87
2023/04/03 00:26:11;;;;;;;1.30;1.20;;;2.20;97.30;;;;;;5031386;28;20331;-87
2023/04/03 00:28:36;;;;;;;1.10;1.00;;;2.20;97.30;;;;;;5033908;28;20589;-87
2023/04/03 00:31:02;;;;;;;1.20;1.10;;;2.10;97.30;;;;;;5035154;28;20180;-88
2023/04/03 00:33:27;;;;;;;1.17;1.07;;;2.10;97.30;;;;;;5034824;28;20236;-87
2023/04/03 00:35:52;;;;;;;1.10;1.00;;;2.00;97.30;;;;;;5035446;28;20184;-87
2023/04/03 00:38:18;;;;;;;2.20;2.00;;;2.00;97.30;;;;;;5035327;28;20201;-88
2023/04/03 00:40:47;;;;;;;1.10;1.00;;;1.90;97.30;;;;;;5034800;28;20644;-87
2023/04/03 00:43:16;;;;;;;1.87;1.50;;;1.90;97.30;;;;;;5032616;28;20195;-87
2023/04/03 00:45:44;;;;;;;1.10;1.00;;;1.80;97.30;;;;;;5033448;28;20431;-88
2023/04/03 00:48:19;;;;;;;1.23;1.13;;;1.80;97.30;;;;;;5034013;28;20856;-87
2023/04/03 00:50:45;;;;;;;1.57;1.33;;;1.70;97.30;;;;;;5033867;28;20438;-88
2023/04/03 00:53:21;;;;;;;1.30;1.20;;;1.70;97.30;;;;;;5033712;28;20488;-87
2023/04/03 00:55:52;;;;;;;1.20;1.10;;;1.60;97.30;;;;;;5034795;28;20438;-87
2023/04/03 00:58:21;;;;;;;1.10;1.00;;;1.60;97.30;;;;;;5033738;28;20429;-87
2023/04/03 01:00:55;;;;;;;1.30;1.20;;;1.50;97.30;;;;;;5034281;28;20463;-87
2023/04/03 01:03:21;;;;;;;3.53;2.17;;;1.50;97.30;;;;;;5034254;28;20418;-87
2023/04/03 01:05:47;;;;;;;1.30;1.20;;;1.40;97.30;;;;;;5033971;28;20426;-87
2023/04/03 01:08:12;;;;;;;1.40;1.30;;;1.40;97.30;;;;;;5033263;28;20192;-87
2023/04/03 01:10:38;;;;;;;14.77;2.23;;;1.30;97.30;;;;;;5031732;28;20363;-88
2023/04/03 01:13:22;;;;;;;1.47;1.37;;;1.30;97.30;;;;;;5033002;28;20211;-87
2023/04/03 01:15:51;;;;;;;1.20;1.10;;;1.30;97.30;;;;;;5033088;28;20219;-87
2023/04/03 01:18:16;;;;;;;1.10;1.00;;;1.20;97.30;;;;;;5033978;28;20507;-87
2023/04/03 01:21:06;;;;;;;1.30;1.20;;;1.10;97.30;;;;;;5034108;28;21060;-88
2023/04/03 01:23:48;;;;;;;1.30;1.20;;;1.10;97.30;;;;;;5033990;28;20558;-88
2023/04/03 01:26:14;;;;;;;1.20;1.10;;;1.10;97.30;;;;;;5033807;28;20419;-88
2023/04/03 01:28:41;;;;;;;1.20;1.10;;;1.00;97.30;;;;;;5033662;28;20594;-87
2023/04/03 01:31:21;;;;;;;1.30;1.20;;;1.00;97.30;;;;;;5034029;28;20241;-88
2023/04/03 01:33:54;;;;;;;1.50;1.40;;;0.90;97.30;;;;;;5033557;28;20419;-87
2023/04/03 01:36:26;;;;;;;1.20;1.10;;;0.90;97.30;;;;;;5034137;28;20418;-88
2023/04/03 01:38:53;;;;;;;1.20;1.10;;;0.90;97.30;;;;;;5017139;28;20454;-87
2023/04/03 01:41:18;;;;;;;3.03;1.43;;;0.90;97.30;;;;;;5033423;28;20489;-87
2023/04/03 01:43:44;;;;;;;1.70;1.60;;;0.80;97.30;;;;;;5032308;28;20423;-88
2023/04/03 01:46:10;;;;;;;1.20;1.10;;;0.80;97.30;;;;;;5030101;28;20664;-88
2023/04/03 01:48:35;;;;;;;1.20;1.03;;;0.70;97.30;;;;;;5030859;28;20207;-88
2023/04/03 01:51:01;;;;;;;1.10;1.00;;;0.70;97.30;;;;;;5033071;28;20176;-88
2023/04/03 01:53:26;;;;;;;1.30;1.20;;;0.70;97.30;;;;;;5029251;28;20428;-87
2023/04/03 01:55:52;;;;;;;1.40;1.30;;;0.70;97.30;;;;;;5032565;28;20283;-87
2023/04/03 01:58:17;;;;;;;1.20;1.10;;;0.60;97.30;;;;;;5033683;28;20230;-87
2023/04/03 02:00:43;;;;;;;1.20;1.10;;;0.60;97.30;;;;;;5033635;28;20706;-87
2023/04/03 02:03:09;;;;;;;1.17;1.07;;;0.60;97.30;;;;;;5032283;28;20195;-87
2023/04/03 02:05:34;;;;;;;1.93;1.23;;;0.60;97.30;;;;;;5031691;28;20262;-87
2023/04/03 02:08:00;;;;;;;2.50;1.23;;;0.60;97.30;;;;;;5032309;28;20177;-87
2023/04/03 02:10:25;;;;;;;1.20;1.10;;;0.60;97.30;;;;;;5032111;28;20246;-87
2023/04/03 02:12:51;;;;;;;1.20;1.10;;;0.60;97.30;;;;;;5032611;28;20185;-88
2023/04/03 02:15:17;;;;;;;1.10;1.00;;;0.50;97.30;;;;;;5032065;28;20275;-87
2023/04/03 02:17:42;;;;;;;1.23;1.13;;;0.50;97.30;;;;;;5029461;28;20189;-88
2023/04/03 02:20:08;;;;;;;1.63;1.53;;;0.50;97.30;;;;;;5032065;28;20478;-87
2023/04/03 02:22:34;;;;;;;1.17;1.07;;;0.50;97.30;;;;;;5031734;28;20180;-87
2023/04/03 02:25:00;;;;;;;1.13;1.03;;;0.50;97.30;;;;;;5031483;28;20429;-87
2023/04/03 02:27:25;;;;;;;2.87;1.83;;;0.50;97.30;;;;;;5031585;28;20180;-87
2023/04/03 02:29:51;;;;;;;1.20;1.10;;;0.50;97.30;;;;;;5031380;28;20870;-87
2023/04/03 02:32:16;;;;;;;1.30;1.20;;;0.50;97.30;;;;;;5032157;28;20191;-88
2023/04/03 02:34:42;;;;;;;1.33;1.23;;;0.50;97.30;;;;;;5030056;28;20181;-87
2023/04/03 02:37:07;;;;;;;1.10;1.00;;;0.50;97.30;;;;;;5026882;28;20187;-87
2023/04/03 02:39:34;;;;;;;1.20;1.10;;;0.40;97.30;;;;;;5033060;28;20295;-88
2023/04/03 02:41:59;;;;;;;1.30;1.20;;;0.40;97.30;;;;;;5027966;28;20181;-87
2023/04/03 02:44:25;;;;;;;1.47;1.37;;;0.30;97.30;;;;;;5035589;28;20414;-87
2023/04/03 02:46:50;;;;;;;2.53;2.33;;;0.30;97.30;;;;;;5031285;28;20243;-87
2023/04/03 02:49:16;;;;;;;1.40;1.30;;;0.30;97.30;;;;;;5029625;28;20204;-87
2023/04/03 02:51:42;;;;;;;1.50;1.40;;;0.20;97.30;;;;;;5029841;28;20176;-87
2023/04/03 02:54:08;;;;;;;2.50;1.60;;;0.20;97.30;;;;;;5028972;28;20652;-87
2023/04/03 02:56:34;;;;;;;1.73;1.63;;;0.10;97.30;;;;;;5029154;28;20566;-87
2023/04/03 02:58:59;;;;;;;1.83;1.73;;;0.10;97.30;;;;;;5029714;28;20445;-88
2023/04/03 03:01:28;;;;;;;1.10;1.00;;;0.10;97.30;;;;;;5031417;28;20523;-90
2023/04/03 03:03:54;;;;;;;1.23;1.13;;;0.00;97.30;;;;;;5031183;28;20172;-89
2023/04/03 03:06:19;;;;;;;1.20;1.10;;;0.00;97.30;;;;;;5033138;28;20422;-88
2023/04/03 03:08:45;;;;;;;1.10;1.00;;;0.00;97.30;;;;;;5029003;28;20481;-88
2023/04/03 03:11:11;;;;;;;1.33;1.23;;;-0.10;97.30;;;;;;5030933;28;20273;-88
2023/04/03 03:13:36;;;;;;;1.00;0.90;;;-0.10;97.30;;;;;;5030313;28;20194;-86
2023/04/03 03:16:02;;;;;;;1.50;1.40;;;-0.20;97.30;;;;;;5032206;28;20420;-89
2023/04/03 03:18:29;;;;;;;1.30;1.20;;;-0.20;97.30;;;;;;5030327;28;20651;-89
2023/04/03 03:21:00;;;;;;;1.10;1.00;;;-0.20;97.30;;;;;;5029648;28;20466;-86
2023/04/03 03:23:30;;;;;;;1.17;1.07;;;-0.20;97.30;;;;;;5033245;28;20425;-88
2023/04/03 03:26:02;;;;;;;1.10;1.00;;;-0.20;97.30;;;;;;5031457;28;20414;-88
2023/04/03 03:28:30;;;;;;;1.10;1.00;;;-0.30;97.30;;;;;;5035654;28;20462;-89
2023/04/03 03:30:56;;;;;;;1.40;1.30;;;-0.30;97.30;;;;;;5039315;28;20422;-86
2023/04/03 03:33:22;;;;;;;1.30;1.20;;;-0.30;97.30;;;;;;5039179;28;20497;-87
2023/04/03 03:35:48;;;;;;;1.73;1.63;;;-0.30;97.30;;;;;;5039860;28;20427;-88
2023/04/03 03:38:13;;;;;;;1.30;1.20;;;-0.30;97.30;;;;;;5041506;28;20251;-87
2023/04/03 03:40:39;;;;;;;1.10;1.00;;;-0.30;97.30;;;;;;5038211;28;20263;-90
2023/04/03 03:43:05;;;;;;;1.30;1.20;;;-0.40;97.30;;;;;;5030768;28;20564;-86
2023/04/03 03:45:31;;;;;;;1.60;1.50;;;-0.40;97.30;;;;;;5032408;28;20674;-87
2023/04/03 03:48:01;;;;;;;1.20;1.10;;;-0.40;97.30;;;;;;5032504;28;20173;-88
2023/04/03 03:50:26;;;;;;;1.10;1.00;;;-0.40;97.30;;;;;;5030858;28;20443;-89
2023/04/03 03:52:52;;;;;;;1.10;1.00;;;-0.40;97.30;;;;;;5031043;28;20418;-88
2023/04/03 03:55:17;;;;;;;1.40;1.30;;;-0.50;97.30;;;;;;5030171;28;20175;-90
2023/04/03 03:57:43;;;;;;;2.40;1.67;;;-0.50;97.30;;;;;;5030735;28;20351;-88
2023/04/03 04:00:12;;;;;;;1.23;1.13;;;-0.50;97.30;;;;;;5030009;28;20205;-89
2023/04/03 04:02:38;;;;;;;1.20;1.10;;;-0.50;97.30;;;;;;5029418;28;20311;-90
2023/04/03 04:05:04;;;;;;;1.10;1.00;;;-0.50;97.30;;;;;;5030281;28;20433;-88
2023/04/03 04:07:29;;;;;;;1.23;1.13;;;-0.60;97.30;;;;;;5030969;28;20172;-88
2023/04/03 04:09:55;;;;;;;1.20;1.10;;;-0.60;97.30;;;;;;5029979;28;20580;-89
2023/04/03 04:12:21;;;;;;;1.00;0.90;;;-0.60;97.30;;;;;;5031234;28;20177;-90
2023/04/03 04:14:46;;;;;;;1.20;1.10;;;-0.60;97.30;;;;;;5032231;28;20183;-89
2023/04/03 04:17:13;;;;;;;1.50;1.40;;;-0.60;97.30;;;;;;5030764;28;20435;-89
2023/04/03 04:19:39;;;;;;;1.40;1.30;;;-0.60;97.30;;;;;;5035590;28;20204;-88
2023/04/03 04:22:04;;;;;;;1.33;1.23;;;-0.70;97.30;;;;;;5022361;28;20443;-88
2023/04/03 04:24:30;;;;;;;1.20;1.10;;;-0.70;97.30;;;;;;5034390;28;20179;-87
2023/04/03 04:26:55;;;;;;;1.10;1.00;;;-0.70;97.30;;;;;;5035205;28;20667;-88
2023/04/03 04:29:23;;;;;;;1.20;1.10;;;-0.70;97.30;;;;;;5035223;28;20247;-88
2023/04/03 04:31:48;;;;;;;1.40;1.30;;;-0.70;97.30;;;;;;5035094;28;20180;-88
2023/04/03 04:34:14;;;;;;;1.33;1.23;;;-0.70;97.30;;;;;;5034062;28;20427;-88
2023/04/03 04:36:40;;;;;;;1.10;1.00;;;-0.70;97.30;;;;;;5034246;28;20234;-88
2023/04/03 04:39:06;;;;;;;1.73;1.63;;;-0.70;97.30;;;;;;5028609;28;20235;-88
2023/04/03 04:41:31;;;;;;;1.00;0.90;;;-0.70;97.30;;;;;;5033242;28;20458;-88
2023/04/03 04:43:57;;;;;;;1.20;1.10;;;-0.70;97.30;;;;;;5033751;28;20173;-88
2023/04/03 04:46:23;;;;;;;2.13;1.27;;;-0.70;97.30;;;;;;5026861;28;20723;-87
2023/04/03 04:48:48;;;;;;;2.20;1.90;;;-0.80;97.30;;;;;;5030390;28;20459;-86
2023/04/03 04:51:15;;;;;;;3.00;1.40;;;-0.70;97.30;;;;;;5031691;28;20663;-87
2023/04/03 04:53:40;;;;;;;1.60;1.50;;;-0.80;97.30;;;;;;5032063;28;20195;-89
2023/04/03 04:56:06;;;;;;;1.70;1.40;;;-0.70;97.30;;;;;;5030969;28;20428;-89
2023/04/03 04:58:32;;;;;;;1.83;1.73;;;-0.80;97.30;;;;;;5032954;28;20223;-88
2023/04/03 05:01:03;;;;;;;1.60;1.50;;;-0.70;97.30;;;;;;5032193;28;20512;-89
2023/04/03 05:03:28;;;;;;;1.20;1.10;;;-0.70;97.30;;;;;;5032252;28;20184;-89
2023/04/03 05:05:54;;;;;;;1.10;1.00;;;-0.70;97.30;;;;;;5032016;28;20407;-89
2023/04/03 05:08:19;;;;;;;1.10;1.00;;;-0.70;97.30;;;;;;5031789;28;20216;-89
2023/04/03 05:10:46;;;;;;;1.30;1.20;;;-0.70;97.30;;;;;;5026182;28;20776;-89
2023/04/03 05:13:11;;;;;;;3.47;3.33;;;-0.60;97.30;;;;;;5032687;28;20501;-89
2023/04/03 05:15:37;;;;;;;1.03;0.93;;;-0.60;97.30;;;;;;5031717;28;20514;-89
2023/04/03 05:18:02;;;;;;;2.13;1.93;;;-0.60;97.30;;;;;;5032173;28;20718;-88
2023/04/03 05:20:28;;;;;;;1.10;1.00;;;-0.60;97.30;;;;;;5031966;28;20563;-89
2023/04/03 05:22:54;;;;;;;1.57;1.47;;;-0.50;97.30;;;;;;5033263;28;20177;-88
2023/04/03 05:25:19;;;;;;;1.20;1.10;;;-0.50;97.30;;;;;;5035166;28;20590;-89
2023/04/03 05:27:45;;;;;;;1.83;1.73;;;-0.50;97.30;;;;;;5031283;28;20173;-89
2023/04/03 05:30:11;;;;;;;1.50;1.40;;;-0.50;97.30;;;;;;5027875;28;20196;-89
2023/04/03 05:32:36;;;;;;;1.10;1.00;;;-0.40;97.30;;;;;;5034892;28;20261;-89
2023/04/03 05:35:03;;;;;;;1.10;1.00;;;-0.40;97.30;;;;;;5025057;28;20436;-88
2023/04/03 05:37:28;;;;;;;1.23;1.13;;;-0.40;97.30;;;;;;5024731;28;20189;-89
2023/04/03 05:39:54;;;;;;;1.00;0.90;;;-0.30;97.30;;;;;;5034516;28;20451;-88
2023/04/03 05:42:19;;;;;;;1.30;1.20;;;-0.30;97.30;;;;;;5034277;28;20256;-88
2023/04/03 05:44:47;;;;;;;7.50;6.40;;;-0.20;97.30;;;;;;5037505;28;20247;-89
2023/04/03 05:47:12;;;;;;;1.70;1.60;;;-0.20;97.30;;;;;;5042123;28;20184;-88
2023/04/03 05:49:40;;;;;;;1.20;1.10;;;-0.20;97.30;;;;;;5046103;28;20496;-90
2023/04/03 05:52:19;;;;;;;1.20;1.10;;;-0.10;97.30;;;;;;5038506;28;20227;-88
2023/04/03 05:54:47;;;;;;;2.57;1.87;;;-0.10;97.30;;;;;;5039081;28;20419;-89
2023/04/03 05:57:15;;;;;;;1.20;1.10;;;-0.10;97.30;;;;;;5041705;28;20510;-88
2023/04/03 05:59:42;;;;;;;2.20;2.00;;;0.00;97.30;;;;;;5043431;28;20443;-89
2023/04/03 06:02:15;;;;;;;1.80;1.70;;;0.00;97.30;;;;;;5036788;28;21088;-87
2023/04/03 06:04:42;;;;;;;1.50;1.40;;;0.00;97.30;;;;;;5054336;28;20437;-90
2023/04/03 06:07:11;;;;;;;4.70;1.47;;;0.10;97.30;;;;;;5053401;28;20419;-88
2023/04/03 06:09:37;;;;;;;1.63;1.53;;;0.10;97.30;;;;;;5036511;28;20490;-88
2023/04/03 06:12:02;;;;;;;4.30;2.03;;;0.10;97.30;;;;;;5017659;28;20436;-88
2023/04/03 06:14:28;;;;;;;8.50;4.00;;;0.20;97.30;;;;;;5032655;28;20168;-89
2023/04/03 06:16:54;;;;;;;7.20;6.80;;;0.20;97.30;;;;;;5022862;28;20794;-89
2023/04/03 06:19:21;;;;;;;3.93;3.70;;;0.30;97.30;;;;;;5029685;28;20210;-89
2023/04/03 06:21:50;;;;;;;28.07;19.33;;;0.30;97.30;;;;;;5033019;28;20968;-88
2023/04/03 06:24:17;;;;;;;8.50;8.03;;;0.40;97.30;;;;;;5032824;28;20517;-88
2023/04/03 06:26:43;;;;;;;1.73;1.63;;;0.40;97.30;;;;;;5033372;28;20894;-88
2023/04/03 06:29:08;;;;;;;38.13;24.80;;;0.50;97.30;;;;;;5031972;28;20446;-88
2023/04/03 06:31:36;;;;;;;5.57;5.27;;;0.60;97.30;;;;;;5025170;28;20834;-88
2023/04/03 06:34:01;;;;;;;10.67;6.00;;;0.60;97.30;;;;;;5032536;28;20179;-88
2023/04/03 06:36:27;;;;;;;1.97;1.83;;;0.70;97.30;;;;;;5031344;28;20518;-87
2023/04/03 06:38:53;;;;;;;5.03;4.73;;;0.80;97.30;;;;;;5028712;28;20646;-88
2023/04/03 06:41:18;;;;;;;10.67;4.53;;;0.90;97.30;;;;;;5026434;28;20263;-87
2023/04/03 06:43:44;;;;;;;28.43;11.97;;;1.00;97.30;;;;;;5031585;28;20173;-88
2023/04/03 06:46:18;;;;;;;7.80;5.63;;;1.10;97.30;;;;;;5025306;28;20181;-86
2023/04/03 06:48:44;;;;;;;33.17;19.73;;;1.10;97.30;;;;;;5030154;28;20497;-88
2023/04/03 06:51:28;;;;;;;6.07;5.77;;;1.20;97.30;;;;;;5024299;28;20838;-88
2023/04/03 06:53:55;;;;;;;54.63;22.40;;;1.30;97.30;;;;;;5019027;28;20422;-88
2023/04/03 06:56:22;;;;;;;52.80;24.00;;;1.30;97.30;;;;;;5025231;28;20422;-85
2023/04/03 06:58:47;;;;;;;26.40;19.63;;;1.40;97.30;;;;;;5036641;28;20503;-85
2023/04/03 07:01:16;;;;;;;29.67;12.23;;;1.40;97.30;;;;;;5028469;28;20453;-84
2023/04/03 07:03:46;;;;;;;24.30;16.30;;;1.50;97.30;;;;;;5036525;28;20191;-85
2023/04/03 07:06:12;;;;;;;81.37;26.37;;;1.60;97.30;;;;;;5036128;28;20441;-84
2023/04/03 07:08:39;;;;;;;54.73;31.90;;;1.70;97.30;;;;;;5035851;28;20544;-84
2023/04/03 07:11:05;;;;;;;15.47;10.07;;;1.80;97.30;;;;;;5038396;28;20475;-81
2023/04/03 07:13:34;;;;;;;36.00;24.93;;;1.90;97.30;;;;;;5038063;28;20846;-83
2023/04/03 07:16:03;;;;;;;56.57;28.77;;;2.00;97.30;;;;;;5039751;28;20759;-83
2023/04/03 07:18:29;;;;;;;54.97;9.00;;;2.00;97.30;;;;;;5040102;28;20609;-82
2023/04/03 07:20:54;;;;;;;72.37;23.47;;;2.10;97.30;;;;;;5039507;28;20420;-82
2023/04/03 07:23:21;;;;;;;38.27;17.90;;;2.20;97.30;;;;;;5027844;28;20177;-82
2023/04/03 07:25:48;;;;;;;15.43;10.07;;;2.30;97.30;;;;;;5035391;28;20188;-83
2023/04/03 07:28:15;;;;;;;30.53;18.83;;;2.40;97.30;;;;;;5035015;28;20525;-85
2023/04/03 07:30:45;;;;;;;31.10;24.03;;;2.40;97.30;;;;;;5035837;28;20489;-84
2023/04/03 07:33:11;;;;;;;53.37;37.23;;;2.40;97.30;;;;;;5035303;28;20407;-83
2023/04/03 07:35:37;;;;;;;47.57;31.63;;;2.40;97.30;;;;;;5036450;28;20450;-84
2023/04/03 07:38:03;;;;;;;51.80;32.47;;;2.40;97.30;;;;;;5034966;28;20423;-82
2023/04/03 07:40:28;;;;;;;16.17;7.20;;;2.40;97.30;;;;;;5034469;28;20207;-81
2023/04/03 07:42:56;;;;;;;9.47;5.93;;;2.50;97.00;;;;;;5034586;28;20184;-84
2023/04/03 07:45:22;;;;;;;4.47;4.17;;;2.40;96.40;;;;;;5034385;28;20830;-81
2023/04/03 07:47:48;;;;;;;2.97;1.63;;;2.50;96.70;;;;;;5037039;28;20447;-83
2023/04/03 07:50:14;;;;;;;43.20;26.67;;;2.50;96.60;;;;;;5038067;28;20560;-84
2023/04/03 07:52:40;;;;;;;3.17;2.80;;;2.70;96.80;;;;;;5037517;28;20180;-81
2023/04/03 07:55:06;;;;;;;3.33;3.13;;;2.80;96.30;;;;;;5031681;28;20423;-83
2023/04/03 07:57:31;;;;;;;53.03;28.50;;;2.80;95.00;;;;;;5032204;28;20423;-84
2023/04/03 07:59:57;;;;;;;120.87;59.73;;;2.80;95.00;;;;;;5037446;28;20461;-84
2023/04/03 08:02:22;;;;;;;10.60;10.00;;;2.90;95.00;;;;;;5037452;28;20238;-82
2023/04/03 08:04:48;;;;;;;51.60;34.47;;;2.90;94.90;;;;;;5037596;28;20227;-81
2023/04/03 08:07:13;;;;;;;45.73;24.33;;;2.90;95.10;;;;;;5037115;28;20717;-83
2023/04/03 08:09:39;;;;;;;11.03;6.80;;;2.80;95.20;;;;;;5039533;28;20241;-83
2023/04/03 08:12:05;;;;;;;70.57;33.97;;;2.80;95.00;;;;;;5037250;28;20212;-83
2023/04/03 08:14:34;;;;;;;16.40;12.63;;;2.80;95.30;;;;;;5036668;28;20411;-82
2023/04/03 08:17:00;;;;;;;2.83;2.63;;;3.00;95.10;;;;;;5035452;28;20200;-83
2023/04/03 08:19:26;;;;;;;2.43;2.23;;;3.20;95.10;;;;;;5035956;28;20475;-84
2023/04/03 08:21:53;;;;;;;46.63;27.47;;;3.20;93.80;;;;;;5031767;28;20416;-84
2023/04/03 08:24:18;;;;;;;23.93;18.97;;;3.10;93.70;;;;;;5036611;28;20426;-84
2023/04/03 08:26:44;;;;;;;19.43;13.57;;;3.10;93.60;;;;;;5036642;28;20940;-82
2023/04/03 08:29:09;;;;;;;39.23;18.60;;;3.10;94.10;;;;;;5036800;28;20204;-82
2023/04/03 08:31:35;;;;;;;39.93;26.30;;;3.10;94.70;;;;;;5034246;28;20177;-82
2023/04/03 08:34:00;;;;;;;9.50;3.53;;;3.10;94.10;;;;;;5035222;28;20172;-82
2023/04/03 08:36:28;;;;;;;3.23;2.70;;;3.40;93.00;;;;;;5033561;28;20180;-84
2023/04/03 08:38:54;;;;;;;1.43;1.40;;;3.60;92.60;;;;;;5034570;28;20808;-85
2023/04/03 08:41:35;;;;;;;11.17;7.20;;;3.90;92.10;;;;;;5033382;28;20451;-82
2023/04/03 08:44:18;;;;;;;18.10;7.80;;;4.30;91.70;;;;;;5026370;28;20419;-83
2023/04/03 08:47:04;;;;;;;16.10;10.57;;;4.50;90.50;;;;;;5031019;28;20906;-85
2023/04/03 08:49:35;;;;;;;17.70;13.23;;;4.70;89.40;;;;;;5046047;28;20477;-84
2023/04/03 08:52:05;;;;;;;15.27;8.80;;;4.90;89.30;;;;;;5043261;28;20415;-84
2023/04/03 08:54:35;;;;;;;2.03;1.90;;;5.00;88.10;;;;;;5046611;28;20416;-84
2023/04/03 08:57:04;;;;;;;1.33;1.23;;;5.10;88.20;;;;;;5047734;28;20932;-84
2023/04/03 08:59:34;;;;;;;0.90;0.80;;;5.20;88.20;;;;;;5040396;28;20498;-84
2023/04/03 09:02:06;;;;;;;1.20;1.10;;;5.20;87.50;;;;;;5045624;28;20447;-85
2023/04/03 09:04:33;;;;;;;1.10;1.00;;;5.20;86.60;;;;;;5049671;28;20426;-84
2023/04/03 09:07:08;;;;;;;1.00;0.90;;;5.20;87.60;;;;;;5047751;28;20419;-84
2023/04/03 09:09:41;;;;;;;1.77;1.67;;;5.20;86.40;;;;;;5045986;28;20521;-86
2023/04/03 09:12:18;;;;;;;1.40;1.30;;;4.90;85.90;;;;;;5047365;28;20416;-84
2023/04/03 09:15:18;;;;;;;1.60;1.50;;;4.50;85.30;;;;;;5048834;28;20557;-84
2023/04/03 09:18:02;;;;;;;1.57;1.37;;;4.40;86.10;;;;;;5048775;28;20495;-83
2023/04/03 09:20:47;;;;;;;1.00;0.90;;;4.40;87.50;;;;;;5043202;28;20500;-82
2023/04/03 09:23:27;;;;;;;3.13;1.77;;;4.40;87.50;;;;;;5049738;28;20430;-84
2023/04/03 09:26:00;;;;;;;1.00;0.90;;;4.40;88.00;;;;;;5050193;28;20948;-83
2023/04/03 09:28:27;;;;;;;1.10;1.00;;;4.50;88.50;;;;;;5037359;28;20416;-83
2023/04/03 09:30:53;;;;;;;1.13;1.03;;;4.40;87.60;;;;;;5046694;28;20466;-84
2023/04/03 09:33:19;;;;;;;1.10;1.00;;;4.20;85.80;;;;;;5046310;28;20450;-86
2023/04/03 09:35:47;;;;;;;1.03;0.93;;;4.20;86.10;;;;;;5045473;28;20276;-84
2023/04/03 09:38:13;;;;;;;1.00;1.00;;;4.30;86.90;;;;;;5048266;28;20427;-83
2023/04/03 09:40:43;;;;;;;0.90;0.80;;;4.40;86.20;;;;;;5047024;28;20458;-86
2023/04/03 09:43:27;;;;;;;1.00;0.90;;;4.50;86.00;;;;;;5046997;28;20207;-84
2023/04/03 09:45:54;;;;;;;0.83;0.73;;;4.50;86.50;;;;;;5045518;28;20431;-83
2023/04/03 09:48:25;;;;;;;1.03;0.93;;;4.60;87.30;;;;;;5048664;28;20431;-83
2023/04/03 09:50:51;;;;;;;0.90;0.80;;;4.50;88.00;;;;;;5048586;28;20489;-84
2023/04/03 09:53:43;;;;;;;1.00;0.90;;;4.30;87.20;;;;;;5047663;28;20419;-83
2023/04/03 09:56:15;;;;;;;1.00;0.90;;;4.20;87.60;;;;;;5045184;28;20192;-83
2023/04/03 09:58:43;;;;;;;1.20;1.10;;;4.30;87.30;;;;;;5047467;28;20443;-84
2023/04/03 10:01:29;;;;;;;1.00;0.90;;;4.50;88.70;;;;;;5044295;28;20470;-83
2023/04/03 10:04:16;;;;;;;1.00;0.90;;;4.60;86.80;;;;;;5045153;28;20423;-84
2023/04/03 10:06:48;;;;;;;1.00;0.90;;;4.80;86.50;;;;;;5043373;28;20459;-84
2023/04/03 10:09:23;;;;;;;1.20;1.10;;;4.80;85.70;;;;;;5044419;28;20498;-86
2023/04/03 10:12:06;;;;;;;1.40;1.30;;;4.60;86.40;;;;;;5044490;28;20456;-84
2023/04/03 10:14:35;;;;;;;1.00;0.90;;;4.70;87.30;;;;;;5054808;28;20666;-83
2023/04/03 10:17:22;;;;;;;1.27;1.17;;;4.70;86.80;;;;;;5041896;28;20565;-85
2023/04/03 10:20:32;;;;;;;1.00;0.90;;;4.70;85.90;;;;;;5044096;28;20439;-84
2023/04/03 10:23:22;;;;;;;0.90;0.80;;;4.60;85.40;;;;;;5043429;28;20423;-84
2023/04/03 10:25:51;;;;;;;1.13;1.00;;;4.90;87.10;;;;;;5045388;28;20420;-84
2023/04/03 10:28:23;;;;;;;6.83;5.30;;;5.30;86.90;;;;;;5043209;28;20408;-85
2023/04/03 10:31:11;;;;;;;18.77;11.30;;;5.40;85.60;;;;;;5033579;28;20479;-84
2023/04/03 10:33:49;;;;;;;3.10;1.90;;;5.60;84.90;;;;;;5044170;28;20431;-83
2023/04/03 10:36:38;;;;;;;5.33;1.97;;;5.60;84.10;;;;;;5039023;28;20442;-83
2023/04/03 10:39:27;;;;;;;1.50;1.40;;;5.60;83.40;;;;;;5043693;28;20496;-84
2023/04/03 10:41:59;;;;;;;0.90;0.80;;;5.80;84.80;;;;;;5042147;28;20443;-85
2023/04/03 10:44:54;;;;;;;1.00;0.90;;;6.10;84.50;;;;;;5038838;28;20415;-86
2023/04/03 10:47:32;;;;;;;6.17;2.47;;;6.10;83.70;;;;;;5036576;28;20422;-86
2023/04/03 10:50:20;;;;;;;4.13;1.40;;;6.10;83.80;;;;;;5034274;28;20454;-84
2023/04/03 10:53:01;;;;;;;7.70;4.67;;;6.50;83.90;;;;;;5038190;28;20435;-86
2023/04/03 10:55:48;;;;;;;2.50;2.30;;;6.80;83.00;;;;;;5041793;28;20430;-83
2023/04/03 10:58:25;;;;;;;1.27;1.17;;;6.90;82.20;;;;;;5039629;28;20469;-84
2023/04/03 11:00:53;;;;;;;1.40;1.30;;;6.80;81.40;;;;;;5043001;28;20422;-85
2023/04/03 11:03:48;;;;;;;1.00;0.90;;;6.50;80.70;;;;;;5035905;28;20510;-85
2023/04/03 11:06:17;;;;;;;1.00;0.90;;;6.40;81.10;;;;;;5039422;28;20434;-85
2023/04/03 11:08:49;;;;;;;1.67;1.57;;;6.40;81.70;;;;;;5043833;28;20433;-85
2023/04/03 11:11:25;;;;;;;3.33;1.80;;;6.60;81.50;;;;;;5038636;28;20525;-84
2023/04/03 11:14:22;;;;;;;46.07;24.00;;;6.40;81.20;;;;;;5035310;28;20399;-84
2023/04/03 11:17:03;;;;;;;2.93;2.30;;;6.40;82.00;;;;;;5031862;28;20443;-86
2023/04/03 11:19:38;;;;;;;3.17;1.93;;;6.60;82.40;;;;;;5026958;28;20447;-82
2023/04/03 11:22:28;;;;;;;1.70;1.57;;;6.90;82.50;;;;;;5032350;28;20465;-82
2023/04/03 11:25:08;;;;;;;1.00;0.90;;;7.00;81.50;;;;;;5033233;28;20464;-86
2023/04/03 11:27:45;;;;;;;3.17;1.83;;;6.70;81.40;;;;;;5027382;28;20800;-85
2023/04/03 11:30:38;;;;;;;3.27;3.07;;;6.40;82.10;;;;;;5044685;28;20482;-84
2023/04/03 11:33:39;;;;;;;1.23;1.13;;;6.20;83.10;;;;;;5032334;28;20919;-83
2023/04/03 11:36:18;;;;;;;2.23;1.80;;;6.00;82.10;;;;;;5034369;28;20434;-83
2023/04/03 11:38:47;;;;;;;1.10;1.00;;;6.10;82.30;;;;;;5034607;28;20447;-82
2023/04/03 11:41:13;;;;;;;0.90;0.80;;;6.50;82.10;;;;;;5034526;28;21072;-84
2023/04/03 11:44:01;;;;;;;14.60;7.07;;;6.90;81.70;;;;;;5034100;28;20422;-84
2023/04/03 11:46:56;;;;;;;61.60;10.10;;;7.10;80.90;;;;;;5036268;28;20415;-83
2023/04/03 11:49:57;;;;;;;2.90;2.70;;;7.20;80.50;;;;;;5035247;28;20443;-81
2023/04/03 11:52:38;;;;;;;2.07;1.93;;;7.10;80.80;;;;;;5022556;28;20505;-86
2023/04/03 11:55:31;;;;;;;1.13;1.10;;;7.10;79.40;;;;;;5033568;28;20415;-85
2023/04/03 11:58:00;;;;;;;1.10;1.00;;;6.80;79.10;;;;;;5046998;28;20506;-85
2023/04/03 12:00:47;;;;;;;5.90;2.97;;;6.40;79.00;;;;;;5033760;28;20438;-85
2023/04/03 12:05:54;;;;;;;7.20;4.00;;;6.80;82.20;;;;;;5037864;28;20572;-81
2023/04/03 12:08:50;;;;;;;1.80;1.50;;;7.40;80.80;;;;;;5034506;28;20941;-83
2023/04/03 12:11:23;;;;;;;1.47;1.37;;;7.50;80.90;;;;;;5034012;28;21520;-83
2023/04/03 12:13:55;;;;;;;2.10;1.20;;;7.40;79.80;;;;;;5032410;28;20515;-82
2023/04/03 12:16:37;;;;;;;2.17;1.20;;;7.10;80.10;;;;;;5025456;28;20433;-83
2023/04/03 12:19:13;;;;;;;53.10;22.23;;;6.70;79.90;;;;;;5031416;28;20434;-83
2023/04/03 12:21:47;;;;;;;72.77;28.87;;;6.30;80.10;;;;;;5029905;28;20918;-83
2023/04/03 12:24:19;;;;;;;4.40;2.67;;;6.20;81.10;;;;;;5034025;28;20514;-83
2023/04/03 12:26:56;;;;;;;9.23;3.83;;;6.20;79.70;;;;;;5034638;28;20534;-83
2023/04/03 12:29:34;;;;;;;2.40;2.10;;;6.60;81.80;;;;;;5026960;28;20435;-86
2023/04/03 12:32:36;;;;;;;0.90;0.80;;;7.00;80.00;;;;;;5031055;28;20427;-84
2023/04/03 12:35:29;;;;;;;1.00;0.90;;;6.80;80.40;;;;;;5030728;28;20492;-83
2023/04/03 12:38:16;;;;;;;4.77;2.33;;;6.50;80.90;;;;;;5032822;28;20426;-84
2023/04/03 12:40:41;;;;;;;4.40;1.20;;;6.30;82.60;;;;;;5025616;28;20810;-85
2023/04/03 12:43:21;;;;;;;2.20;1.87;;;6.20;82.60;;;;;;5031786;28;20426;-85
2023/04/03 12:46:04;;;;;;;11.30;1.47;;;6.10;82.80;;;;;;5026409;28;20184;-84
2023/04/03 12:48:36;;;;;;;1.00;0.90;;;6.20;83.30;;;;;;5030868;28;20491;-86
2023/04/03 12:51:03;;;;;;;1.73;1.17;;;6.20;82.30;;;;;;5024107;28;20471;-84
2023/04/03 12:53:34;;;;;;;1.10;1.00;;;6.10;80.70;;;;;;5032963;28;20502;-84
2023/04/03 12:56:20;;;;;;;1.20;1.10;;;6.10;81.70;;;;;;5033294;28;20469;-83
2023/04/03 12:58:46;;;;;;;14.60;8.60;;;6.10;82.30;;;;;;5026289;28;20435;-83
2023/04/03 13:01:18;;;;;;;38.53;14.93;;;6.20;81.90;;;;;;5031488;28;20423;-84
2023/04/03 13:03:48;;;;;;;13.13;3.53;;;6.20;81.60;;;;;;5028765;28;20185;-83
2023/04/03 13:06:19;;;;;;;3.33;2.03;;;6.30;81.90;;;;;;5026306;28;20506;-85
2023/04/03 13:08:50;;;;;;;2.30;1.63;;;6.20;81.20;;;;;;5032068;28;20477;-84
2023/04/03 13:11:15;;;;;;;1.20;1.10;;;6.10;81.70;;;;;;5031347;28;20477;-83